sensor_id;sensor_type;location;lat;lon;timestamp;pressure;altitude;pressure_sealevel;temperature;humidity
11643;BME280;5877;50.930;6.918;2024-03-22T00:02:40;101646.50;;;14.12;63.42
11643;BME280;5877;50.930;6.918;2024-03-22T00:12:22;101581.91;;;13.63;63.42
11643;BME280;5877;50.930;6.918;2024-03-22T00:22:03;101557.88;;;13.20;64.18
11643;BME280;5877;50.930;6.918;2024-03-22T00:31:44;101640.28;;;13.87;63.66
11643;BME280;5877;50.930;6.918;2024-03-22T00:41:26;101545.06;;;13.30;63.87
11643;BME280;5877;50.930;6.918;2024-03-22T00:51:08;101513.22;;;13.32;63.26
11643;BME280;5877;50.930;6.918;2024-03-22T01:00:50;101593.38;;;13.95;63.06
11643;BME280;5877;50.930;6.918;2024-03-22T01:10:32;101561.00;;;13.69;63.13
11643;BME280;5877;50.930;6.918;2024-03-22T01:20:14;101567.69;;;13.64;64.02
11643;BME280;5877;50.930;6.918;2024-03-22T01:29:56;101513.88;;;13.72;62.78
11643;BME280;5877;50.930;6.918;2024-03-22T01:39:37;101550.28;;;13.57;63.90
11643;BME280;5877;50.930;6.918;2024-03-22T01:49:19;101490.81;;;13.61;63.09
11643;BME280;5877;50.930;6.918;2024-03-22T01:59:01;101512.53;;;13.56;63.38
11643;BME280;5877;50.930;6.918;2024-03-22T02:08:42;101517.53;;;13.78;63.51
11643;BME280;5877;50.930;6.918;2024-03-22T02:18:25;101507.31;;;13.88;63.02
11643;BME280;5877;50.930;6.918;2024-03-22T02:28:06;101447.75;;;13.67;62.53
11643;BME280;5877;50.930;6.918;2024-03-22T02:37:47;101486.72;;;14.03;62.61
11643;BME280;5877;50.930;6.918;2024-03-22T02:47:29;101464.88;;;13.89;63.38
11643;BME280;5877;50.930;6.918;2024-03-22T02:57:10;101452.28;;;13.91;63.03
11643;BME280;5877;50.930;6.918;2024-03-22T03:06:51;101364.94;;;13.68;62.22
11643;BME280;5877;50.930;6.918;2024-03-22T03:16:33;101332.22;;;13.76;61.76
11643;BME280;5877;50.930;6.918;2024-03-22T03:26:14;101374.41;;;14.32;61.83
11643;BME280;5877;50.930;6.918;2024-03-22T03:35:55;101430.75;;;14.19;63.84
11643;BME280;5877;50.930;6.918;2024-03-22T03:45:37;101391.38;;;13.93;64.15
11643;BME280;5877;50.930;6.918;2024-03-22T03:55:18;101286.69;;;13.30;64.14
11643;BME280;5877;50.930;6.918;2024-03-22T04:04:59;101397.84;;;14.22;63.42
11643;BME280;5877;50.930;6.918;2024-03-22T04:14:41;101347.78;;;14.09;62.88
11643;BME280;5877;50.930;6.918;2024-03-22T04:24:22;101381.78;;;13.98;63.81
11643;BME280;5877;50.930;6.918;2024-03-22T04:34:03;101340.28;;;13.56;64.82
11643;BME280;5877;50.930;6.918;2024-03-22T04:43:46;101277.84;;;12.80;66.51
11643;BME280;5877;50.930;6.918;2024-03-22T04:53:28;101284.94;;;13.11;66.50
11643;BME280;5877;50.930;6.918;2024-03-22T05:03:10;101238.09;;;13.13;65.82
11643;BME280;5877;50.930;6.918;2024-03-22T05:12:52;101230.84;;;13.40;64.97
11643;BME280;5877;50.930;6.918;2024-03-22T05:22:33;101318.59;;;14.04;64.94
11643;BME280;5877;50.930;6.918;2024-03-22T05:32:14;101307.81;;;14.05;65.12
11643;BME280;5877;50.930;6.918;2024-03-22T05:41:56;101203.44;;;13.41;64.98
11643;BME280;5877;50.930;6.918;2024-03-22T05:51:37;101313.97;;;14.42;63.82
11643;BME280;5877;50.930;6.918;2024-03-22T06:01:19;101304.66;;;14.76;63.24
11643;BME280;5877;50.930;6.918;2024-03-22T06:11:00;101291.53;;;14.70;63.16
11643;BME280;5877;50.930;6.918;2024-03-22T06:20:42;101286.59;;;15.33;61.30
11643;BME280;5877;50.930;6.918;2024-03-22T06:30:24;101230.47;;;15.19;60.39
11643;BME280;5877;50.930;6.918;2024-03-22T06:40:06;101272.06;;;15.89;59.59
11643;BME280;5877;50.930;6.918;2024-03-22T06:49:48;101247.44;;;15.88;59.10
11643;BME280;5877;50.930;6.918;2024-03-22T06:59:29;101268.56;;;17.49;55.18
11643;BME280;5877;50.930;6.918;2024-03-22T07:09:10;101251.75;;;18.37;52.97
11643;BME280;5877;50.930;6.918;2024-03-22T07:18:53;101172.84;;;18.92;50.15
11643;BME280;5877;50.930;6.918;2024-03-22T07:28:35;101142.63;;;18.22;51.27
11643;BME280;5877;50.930;6.918;2024-03-22T07:38:16;101260.06;;;18.63;52.05
11643;BME280;5877;50.930;6.918;2024-03-22T07:47:57;101206.47;;;19.35;50.17
11643;BME280;5877;50.930;6.918;2024-03-22T07:57:38;101110.63;;;19.35;48.67
11643;BME280;5877;50.930;6.918;2024-03-22T08:07:19;101192.41;;;20.39;47.53
11643;BME280;5877;50.930;6.918;2024-03-22T08:17:02;101099.25;;;19.50;48.09
11643;BME280;5877;50.930;6.918;2024-03-22T08:26:44;101215.13;;;20.62;47.13
11643;BME280;5877;50.930;6.918;2024-03-22T08:36:28;101202.69;;;22.73;42.99
11643;BME280;5877;50.930;6.918;2024-03-22T08:46:09;101195.28;;;21.95;44.23
11643;BME280;5877;50.930;6.918;2024-03-22T08:55:50;101188.72;;;21.52;44.80
11643;BME280;5877;50.930;6.918;2024-03-22T09:05:31;101184.38;;;23.24;41.85
11643;BME280;5877;50.930;6.918;2024-03-22T09:15:12;101183.69;;;23.08;39.72
11643;BME280;5877;50.930;6.918;2024-03-22T09:24:53;101177.34;;;22.99;39.46
11643;BME280;5877;50.930;6.918;2024-03-22T09:34:36;101130.13;;;22.79;39.23
11643;BME280;5877;50.930;6.918;2024-03-22T09:44:19;101157.94;;;23.89;38.16
11643;BME280;5877;50.930;6.918;2024-03-22T09:54:00;101145.97;;;23.34;38.71
11643;BME280;5877;50.930;6.918;2024-03-22T10:03:43;101074.78;;;23.46;38.31
11643;BME280;5877;50.930;6.918;2024-03-22T10:13:25;101128.66;;;23.92;37.66
11643;BME280;5877;50.930;6.918;2024-03-22T10:23:08;101115.97;;;23.79;38.36
11643;BME280;5877;50.930;6.918;2024-03-22T10:32:50;101102.88;;;24.53;36.86
11643;BME280;5877;50.930;6.918;2024-03-22T10:42:34;101099.34;;;24.39;37.37
11643;BME280;5877;50.930;6.918;2024-03-22T10:52:19;101028.59;;;23.97;37.27
11643;BME280;5877;50.930;6.918;2024-03-22T11:02:06;101066.81;;;24.59;36.42
11643;BME280;5877;50.930;6.918;2024-03-22T11:11:47;101006.34;;;23.78;36.92
11643;BME280;5877;50.930;6.918;2024-03-22T11:21:32;101063.66;;;24.19;37.86
11643;BME280;5877;50.930;6.918;2024-03-22T11:31:14;101032.56;;;24.00;37.75
11643;BME280;5877;50.930;6.918;2024-03-22T11:40:56;101032.16;;;24.76;36.42
11643;BME280;5877;50.930;6.918;2024-03-22T11:50:38;101021.97;;;25.06;35.80
11643;BME280;5877;50.930;6.918;2024-03-22T12:00:19;101017.69;;;22.50;39.18
11643;BME280;5877;50.930;6.918;2024-03-22T12:10:01;101010.19;;;22.81;38.90
11643;BME280;5877;50.930;6.918;2024-03-22T12:19:42;100956.09;;;22.55;38.76
11643;BME280;5877;50.930;6.918;2024-03-22T12:29:24;100990.63;;;23.10;39.24
11643;BME280;5877;50.930;6.918;2024-03-22T12:39:05;100896.34;;;22.89;39.06
11643;BME280;5877;50.930;6.918;2024-03-22T12:48:46;100957.31;;;22.68;38.50
11643;BME280;5877;50.930;6.918;2024-03-22T12:58:27;100949.19;;;23.02;37.86
11643;BME280;5877;50.930;6.918;2024-03-22T13:08:09;100940.59;;;22.81;36.38
11643;BME280;5877;50.930;6.918;2024-03-22T13:17:50;100851.38;;;23.80;34.81
11643;BME280;5877;50.930;6.918;2024-03-22T13:27:33;100871.22;;;23.79;35.24
11643;BME280;5877;50.930;6.918;2024-03-22T13:37:15;100858.09;;;23.26;36.77
11643;BME280;5877;50.930;6.918;2024-03-22T13:46:56;100852.16;;;23.29;35.39
11643;BME280;5877;50.930;6.918;2024-03-22T13:56:38;100807.13;;;23.63;34.90
11643;BME280;5877;50.930;6.918;2024-03-22T14:06:19;100763.84;;;23.56;34.25
11643;BME280;5877;50.930;6.918;2024-03-22T14:16:00;100821.84;;;22.72;36.44
11643;BME280;5877;50.930;6.918;2024-03-22T14:25:41;100805.84;;;23.10;36.50
11643;BME280;5877;50.930;6.918;2024-03-22T14:35:22;100805.94;;;23.56;36.28
11643;BME280;5877;50.930;6.918;2024-03-22T14:45:04;100794.69;;;23.03;36.92
11643;BME280;5877;50.930;6.918;2024-03-22T14:54:45;100772.03;;;22.76;37.33
11643;BME280;5877;50.930;6.918;2024-03-22T15:04:27;100768.16;;;22.87;38.55
11643;BME280;5877;50.930;6.918;2024-03-22T15:14:09;100755.09;;;21.32;42.25
11643;BME280;5877;50.930;6.918;2024-03-22T15:23:50;100760.91;;;21.00;44.39
11643;BME280;5877;50.930;6.918;2024-03-22T15:33:31;100754.69;;;20.76;45.47
11643;BME280;5877;50.930;6.918;2024-03-22T15:43:13;100550.66;;;19.10;46.54
11643;BME280;5877;50.930;6.918;2024-03-22T15:52:54;100734.47;;;19.95;47.42
11643;BME280;5877;50.930;6.918;2024-03-22T16:02:35;100734.75;;;19.78;47.94
11643;BME280;5877;50.930;6.918;2024-03-22T16:12:16;100745.16;;;19.39;48.27
11643;BME280;5877;50.930;6.918;2024-03-22T16:21:58;100743.34;;;18.37;51.42
11643;BME280;5877;50.930;6.918;2024-03-22T16:31:39;100719.91;;;17.39;53.67
11643;BME280;5877;50.930;6.918;2024-03-22T16:41:25;100728.13;;;16.79;57.14
11643;BME280;5877;50.930;6.918;2024-03-22T16:51:06;100726.41;;;16.68;57.70
11643;BME280;5877;50.930;6.918;2024-03-22T17:00:47;100652.38;;;15.90;59.07
11643;BME280;5877;50.930;6.918;2024-03-22T17:10:30;100618.66;;;15.59;60.19
11643;BME280;5877;50.930;6.918;2024-03-22T17:20:11;100640.13;;;15.46;60.97
11643;BME280;5877;50.930;6.918;2024-03-22T17:29:55;100600.09;;;14.87;62.17
11643;BME280;5877;50.930;6.918;2024-03-22T17:39:37;100687.56;;;15.36;62.72
11643;BME280;5877;50.930;6.918;2024-03-22T17:49:18;100612.41;;;14.81;63.61
11643;BME280;5877;50.930;6.918;2024-03-22T17:58:59;100705.44;;;15.29;64.47
11643;BME280;5877;50.930;6.918;2024-03-22T18:08:40;100693.03;;;15.29;64.21
11643;BME280;5877;50.930;6.918;2024-03-22T18:18:21;100710.09;;;15.55;63.47
11643;BME280;5877;50.930;6.918;2024-03-22T18:28:03;100722.91;;;15.46;63.29
11643;BME280;5877;50.930;6.918;2024-03-22T18:37:45;100584.13;;;15.15;61.62
11643;BME280;5877;50.930;6.918;2024-03-22T18:47:26;100604.72;;;15.13;61.33
11643;BME280;5877;50.930;6.918;2024-03-22T18:57:07;100637.91;;;15.21;62.10
11643;BME280;5877;50.930;6.918;2024-03-22T19:06:48;100679.53;;;15.64;62.11
11643;BME280;5877;50.930;6.918;2024-03-22T19:16:31;100638.84;;;15.48;62.20
11643;BME280;5877;50.930;6.918;2024-03-22T19:26:12;100604.28;;;15.55;61.26
11643;BME280;5877;50.930;6.918;2024-03-22T19:35:53;100639.88;;;15.47;62.02
11643;BME280;5877;50.930;6.918;2024-03-22T19:45:36;100620.63;;;15.52;61.67
11643;BME280;5877;50.930;6.918;2024-03-22T19:55:17;100576.63;;;15.46;60.77
11643;BME280;5877;50.930;6.918;2024-03-22T20:04:59;100635.31;;;16.03;60.44
11643;BME280;5877;50.930;6.918;2024-03-22T20:14:40;100585.69;;;15.50;60.82
11643;BME280;5877;50.930;6.918;2024-03-22T20:24:21;100610.56;;;15.93;60.64
11643;BME280;5877;50.930;6.918;2024-03-22T20:34:02;100609.22;;;16.12;60.03
